Time,TemperatureF,DewpointF,PressureIn,WindDirection,WindDirectionDegrees,WindSpeedMPH,WindSpeedGustMPH,Humidity,HourlyPrecipIn,Conditions,Clouds,dailyrainin,SoftwareType,DateUTC
2013-02-17 00:02:00,25.0,13.0,30.09,WNW,284,4.0,9.0,59,0.00,,,0.35,,2013-02-17 05:02:00,
2013-02-17 00:12:00,25.0,13.0,30.09,WSW,256,3.0,7.0,60,0.00,,,0.35,,2013-02-17 05:12:00,
2013-02-17 00:22:00,25.0,13.0,30.09,WSW,256,3.0,7.0,60,0.00,,,0.35,,2013-02-17 05:22:00,
2013-02-17 00:33:00,25.0,12.0,30.10,WSW,254,4.0,10.0,58,0.00,,,0.35,,2013-02-17 05:33:00,
2013-02-17 00:42:00,25.0,12.0,30.10,WSW,254,4.0,10.0,58,0.00,,,0.35,,2013-02-17 05:42:00,
2013-02-17 00:52:00,25.0,12.0,30.10,SW,229,4.0,14.0,56,0.00,,,0.35,,2013-02-17 05:52:00,
2013-02-17 01:02:00,25.0,11.0,30.11,NW,313,5.0,11.0,55,0.00,,,0.35,,2013-02-17 06:02:00,
2013-02-17 01:11:00,25.0,11.0,30.11,NW,313,5.0,11.0,55,0.00,,,0.35,,2013-02-17 06:11:00,
2013-02-17 01:21:00,25.0,10.0,30.10,West,272,2.0,8.0,53,0.00,,,0.35,,2013-02-17 06:21:00,
2013-02-17 01:31:00,25.0,9.0,30.11,WNW,284,4.0,16.0,51,0.00,,,0.35,,2013-02-17 06:31:00,
2013-02-17 01:42:00,25.0,9.0,30.11,WNW,284,4.0,16.0,51,0.00,,,0.35,,2013-02-17 06:42:00,
2013-02-17 01:51:00,25.0,10.0,30.11,West,271,2.0,10.0,52,0.00,,,0.35,,2013-02-17 06:51:00,
2013-02-17 02:01:00,25.0,9.0,30.12,WSW,242,4.0,8.0,50,0.00,,,0.35,,2013-02-17 07:01:00,
2013-02-17 02:11:00,25.0,9.0,30.12,West,266,3.0,10.0,50,0.00,,,0.35,,2013-02-17 07:11:00,
2013-02-17 02:21:00,25.0,9.0,30.12,West,266,3.0,10.0,50,0.00,,,0.35,,2013-02-17 07:21:00,
2013-02-17 02:32:00,25.0,9.0,30.12,West,267,3.0,8.0,49,0.00,,,0.35,,2013-02-17 07:32:00,
2013-02-17 02:42:00,25.0,9.0,30.12,West,267,3.0,8.0,49,0.00,,,0.35,,2013-02-17 07:42:00,
2013-02-17 02:52:00,25.0,9.0,30.12,West,276,3.0,6.0,49,0.00,,,0.35,,2013-02-17 07:52:00,
2013-02-17 03:01:00,25.0,9.0,30.13,West,272,5.0,10.0,49,0.00,,,0.35,,2013-02-17 08:01:00,
2013-02-17 03:11:00,25.0,9.0,30.13,West,272,5.0,10.0,49,0.00,,,0.35,,2013-02-17 08:11:00,
2013-02-17 03:21:00,25.0,9.0,30.13,West,277,4.0,9.0,50,0.00,,,0.35,,2013-02-17 08:21:00,
2013-02-17 03:32:00,25.0,9.0,30.13,WNW,288,3.0,9.0,50,0.00,,,0.35,,2013-02-17 08:32:00,
2013-02-17 03:42:00,25.0,9.0,30.13,WNW,288,3.0,9.0,50,0.00,,,0.35,,2013-02-17 08:42:00,
2013-02-17 03:52:00,24.0,8.0,30.13,West,260,5.0,9.0,50,0.00,,,0.35,,2013-02-17 08:52:00,
2013-02-17 04:02:00,24.0,9.0,30.12,West,265,3.0,11.0,51,0.00,,,0.35,,2013-02-17 09:02:00,
2013-02-17 04:11:00,24.0,9.0,30.12,West,265,3.0,11.0,51,0.00,,,0.35,,2013-02-17 09:11:00,
2013-02-17 04:21:00,24.0,9.0,30.13,WNW,285,2.0,5.0,52,0.00,,,0.35,,2013-02-17 09:21:00,
2013-02-17 04:31:00,23.0,8.0,30.13,West,259,3.0,7.0,53,0.00,,,0.35,,2013-02-17 09:31:00,
2013-02-17 04:42:00,23.0,8.0,30.13,West,259,3.0,7.0,53,0.00,,,0.35,,2013-02-17 09:42:00,
2013-02-17 04:52:00,23.0,8.0,30.13,SW,231,4.0,10.0,53,0.00,,,0.35,,2013-02-17 09:52:00,
2013-02-17 05:01:00,23.0,9.0,30.13,WNW,295,2.0,6.0,55,0.00,,,0.35,,2013-02-17 10:01:00,
2013-02-17 05:11:00,23.0,9.0,30.13,WSW,253,3.0,7.0,55,0.00,,,0.34,,2013-02-17 10:11:00,
2013-02-17 05:21:00,23.0,9.0,30.13,WSW,253,3.0,7.0,55,0.00,,,0.34,,2013-02-17 10:21:00,
2013-02-17 05:32:00,23.0,9.0,30.14,SW,227,3.0,9.0,54,0.00,,,0.34,,2013-02-17 10:32:00,
2013-02-17 05:42:00,23.0,9.0,30.14,SW,227,3.0,9.0,54,0.00,,,0.34,,2013-02-17 10:42:00,
2013-02-17 05:52:00,23.0,9.0,30.14,WSW,258,1.0,6.0,55,0.00,,,0.34,,2013-02-17 10:52:00,
2013-02-17 06:01:00,23.0,10.0,30.15,West,261,1.0,4.0,56,0.00,,,0.34,,2013-02-17 11:01:00,
2013-02-17 06:11:00,23.0,10.0,30.15,West,261,1.0,4.0,56,0.00,,,0.34,,2013-02-17 11:11:00,
2013-02-17 06:21:00,23.0,10.0,30.15,SSW,192,0.0,4.0,56,0.00,,,0.34,,2013-02-17 11:21:00,
2013-02-17 06:32:00,23.0,10.0,30.15,West,266,2.0,5.0,56,0.00,,,0.34,,2013-02-17 11:32:00,
2013-02-17 06:42:00,23.0,10.0,30.15,West,266,2.0,5.0,56,0.00,,,0.34,,2013-02-17 11:42:00,
2013-02-17 06:52:00,23.0,10.0,30.16,SW,232,1.0,5.0,56,0.00,,,0.34,,2013-02-17 11:52:00,
2013-02-17 07:03:00,24.0,10.0,30.16,West,263,2.0,8.0,54,0.00,,,0.34,,2013-02-17 12:03:00,
2013-02-17 07:11:00,24.0,10.0,30.16,West,263,2.0,8.0,54,0.00,,,0.34,,2013-02-17 12:11:00,
2013-02-17 07:22:00,24.0,10.0,30.16,SW,224,3.0,7.0,54,0.00,,,0.34,,2013-02-17 12:22:00,
2013-02-17 07:32:00,24.0,10.0,30.17,West,278,3.0,8.0,55,0.00,,,0.34,,2013-02-17 12:32:00,
2013-02-17 07:42:00,24.0,10.0,30.17,West,278,3.0,8.0,55,0.00,,,0.34,,2013-02-17 12:42:00,
2013-02-17 07:52:00,24.0,10.0,30.18,SW,224,3.0,9.0,55,0.00,,,0.34,,2013-02-17 12:52:00,
2013-02-17 08:02:00,24.0,11.0,30.18,WSW,245,3.0,10.0,56,0.00,,,0.34,,2013-02-17 13:02:00,
2013-02-17 08:12:00,24.0,11.0,30.18,WSW,245,3.0,10.0,56,0.00,,,0.34,,2013-02-17 13:12:00,
2013-02-17 08:22:00,24.0,10.0,30.19,SW,231,5.0,14.0,55,0.00,,,0.34,,2013-02-17 13:22:00,
2013-02-17 08:32:00,24.0,11.0,30.19,SW,222,5.0,10.0,56,0.00,,,0.34,,2013-02-17 13:32:00,
2013-02-17 08:42:00,24.0,11.0,30.19,SW,222,5.0,10.0,56,0.00,,,0.34,,2013-02-17 13:42:00,
2013-02-17 08:52:00,24.0,10.0,30.21,SSE,152,6.0,12.0,55,0.00,,,0.34,,2013-02-17 13:52:00,
2013-02-17 09:01:00,25.0,12.0,30.21,West,264,3.0,12.0,56,0.00,,,0.34,,2013-02-17 14:01:00,
2013-02-17 09:11:00,25.0,12.0,30.21,West,264,3.0,12.0,56,0.00,,,0.34,,2013-02-17 14:11:00,
2013-02-17 09:22:00,25.0,11.0,30.22,West,271,3.0,10.0,55,0.00,,,0.34,,2013-02-17 14:22:00,
2013-02-17 09:32:00,26.0,12.0,30.22,West,259,0.0,8.0,56,0.00,,,0.34,,2013-02-17 14:32:00,
2013-02-17 09:42:00,26.0,12.0,30.22,West,259,0.0,8.0,56,0.00,,,0.34,,2013-02-17 14:42:00,
2013-02-17 09:52:00,26.0,11.0,30.22,South,180,4.0,8.0,53,0.00,,,0.34,,2013-02-17 14:52:00,
2013-02-17 10:02:00,27.0,12.0,30.22,SW,234,3.0,11.0,52,0.00,,,0.34,,2013-02-17 15:02:00,
2013-02-17 10:11:00,27.0,12.0,30.22,SW,234,3.0,11.0,52,0.00,,,0.34,,2013-02-17 15:11:00,
2013-02-17 10:21:00,29.0,14.0,30.22,West,265,1.0,8.0,52,0.00,,,0.34,,2013-02-17 15:21:00,
2013-02-17 10:32:00,29.0,14.0,30.22,West,265,1.0,8.0,52,0.00,,,0.34,,2013-02-17 15:32:00,
2013-02-17 10:42:00,29.0,14.0,30.22,West,265,1.0,8.0,52,0.00,,,0.34,,2013-02-17 15:42:00,
2013-02-17 10:52:00,28.0,10.0,30.24,WNW,302,5.0,9.0,47,0.00,,,0.34,,2013-02-17 15:52:00,
2013-02-17 11:01:00,30.0,11.0,30.24,West,273,4.0,9.0,44,0.00,,,0.34,,2013-02-17 16:01:00,
2013-02-17 11:12:00,30.0,11.0,30.24,West,273,4.0,9.0,44,0.00,,,0.34,,2013-02-17 16:12:00,
2013-02-17 11:21:00,29.0,11.0,30.24,SSW,201,3.0,16.0,46,0.00,,,0.31,,2013-02-17 16:21:00,
2013-02-17 11:32:00,30.0,10.0,30.24,SW,229,3.0,12.0,43,0.00,,,0.31,,2013-02-17 16:32:00,
2013-02-17 11:42:00,30.0,10.0,30.24,SW,229,3.0,12.0,43,0.00,,,0.31,,2013-02-17 16:42:00,
2013-02-17 11:51:00,30.0,10.0,30.24,West,270,5.0,11.0,43,0.00,,,0.31,,2013-02-17 16:51:00,
2013-02-17 12:02:00,32.0,13.0,30.24,West,263,2.0,14.0,44,0.00,,,0.31,,2013-02-17 17:02:00,
2013-02-17 12:11:00,32.0,13.0,30.24,West,263,2.0,14.0,44,0.00,,,0.31,,2013-02-17 17:11:00,
2013-02-17 12:21:00,32.0,11.0,30.23,WSW,246,6.0,12.0,41,0.00,,,0.31,,2013-02-17 17:21:00,
2013-02-17 12:32:00,33.0,11.0,30.22,West,263,6.0,13.0,39,0.00,,,0.21,,2013-02-17 17:32:00,
2013-02-17 12:42:00,33.0,11.0,30.22,West,263,6.0,13.0,39,0.00,,,0.21,,2013-02-17 17:42:00,
2013-02-17 12:52:00,33.0,11.0,30.22,West,275,4.0,13.0,39,0.00,,,0.21,,2013-02-17 17:52:00,
2013-02-17 13:02:00,34.0,11.0,30.22,WNW,283,4.0,12.0,37,0.00,,,0.21,,2013-02-17 18:02:00,
2013-02-17 13:11:00,34.0,11.0,30.22,WNW,283,4.0,12.0,37,0.00,,,0.21,,2013-02-17 18:11:00,
2013-02-17 13:22:00,36.0,12.0,30.21,West,279,3.0,8.0,36,0.01,,,0.15,,2013-02-17 18:22:00,
2013-02-17 13:33:00,34.0,8.0,30.20,North,5,6.0,17.0,33,0.01,,,0.15,,2013-02-17 18:33:00,
2013-02-17 13:42:00,34.0,8.0,30.20,North,5,6.0,17.0,33,0.01,,,0.15,,2013-02-17 18:42:00,
2013-02-17 13:52:00,35.0,9.0,30.19,NNW,332,6.0,19.0,34,0.01,,,0.15,,2013-02-17 18:52:00,
2013-02-17 14:01:00,35.0,8.0,30.19,WNW,289,6.0,17.0,32,0.01,,,0.15,,2013-02-17 19:01:00,
2013-02-17 14:11:00,35.0,8.0,30.19,WNW,289,6.0,17.0,32,0.01,,,0.15,,2013-02-17 19:11:00,
2013-02-17 14:21:00,36.0,9.0,30.19,WNW,282,5.0,12.0,32,0.00,,,0.10,,2013-02-17 19:21:00,
2013-02-17 14:32:00,36.0,8.0,30.19,WSW,237,6.0,12.0,31,0.00,,,0.10,,2013-02-17 19:32:00,
2013-02-17 14:42:00,36.0,8.0,30.19,WSW,237,6.0,12.0,31,0.00,,,0.10,,2013-02-17 19:42:00,
2013-02-17 14:52:00,36.0,8.0,30.19,West,280,8.0,15.0,30,0.00,,,0.10,,2013-02-17 19:52:00,
2013-02-17 15:02:00,38.0,13.0,30.18,West,267,2.0,11.0,35,0.00,,,0.10,,2013-02-17 20:02:00,
2013-02-17 15:11:00,38.0,13.0,30.18,West,267,2.0,11.0,35,0.00,,,0.10,,2013-02-17 20:11:00,
2013-02-17 15:21:00,37.0,10.0,30.18,SSW,210,5.0,11.0,32,0.00,,,0.07,,2013-02-17 20:21:00,
2013-02-17 15:32:00,37.0,9.0,30.18,West,266,5.0,14.0,31,0.00,,,0.07,,2013-02-17 20:32:00,
2013-02-17 15:42:00,37.0,9.0,30.18,West,266,5.0,14.0,31,0.00,,,0.07,,2013-02-17 20:42:00,
2013-02-17 15:52:00,38.0,8.0,30.17,WNW,290,5.0,11.0,28,0.00,,,0.07,,2013-02-17 20:52:00,
2013-02-17 16:02:00,38.0,8.0,30.17,WNW,298,9.0,15.0,28,0.00,,,0.07,,2013-02-17 21:02:00,
2013-02-17 16:11:00,38.0,8.0,30.17,WNW,298,9.0,15.0,28,0.00,,,0.07,,2013-02-17 21:11:00,
2013-02-17 16:21:00,38.0,9.0,30.17,WNW,284,2.0,9.0,30,0.00,,,0.07,,2013-02-17 21:21:00,
2013-02-17 16:32:00,38.0,8.0,30.17,SW,235,5.0,10.0,28,0.00,,,0.05,,2013-02-17 21:32:00,
2013-02-17 16:42:00,38.0,8.0,30.17,SW,235,5.0,10.0,28,0.00,,,0.05,,2013-02-17 21:42:00,
2013-02-17 16:52:00,39.0,8.0,30.18,WNW,292,3.0,9.0,27,0.00,,,0.05,,2013-02-17 21:52:00,
2013-02-17 17:01:00,38.0,9.0,30.18,West,259,3.0,11.0,30,0.00,,,0.05,,2013-02-17 22:01:00,
2013-02-17 17:12:00,38.0,9.0,30.18,West,259,3.0,11.0,30,0.00,,,0.05,,2013-02-17 22:12:00,
2013-02-17 17:22:00,38.0,8.0,30.18,West,273,2.0,8.0,28,0.00,,,0.03,,2013-02-17 22:22:00,
2013-02-17 17:32:00,38.0,6.0,30.18,West,267,4.0,10.0,26,0.00,,,0.03,,2013-02-17 22:32:00,
2013-02-17 17:42:00,38.0,6.0,30.18,West,267,4.0,10.0,26,0.00,,,0.03,,2013-02-17 22:42:00,
2013-02-17 17:52:00,38.0,5.0,30.18,WSW,254,5.0,11.0,25,0.00,,,0.03,,2013-02-17 22:52:00,
2013-02-17 18:02:00,37.0,6.0,30.19,West,279,5.0,11.0,27,0.00,,,0.03,,2013-02-17 23:02:00,
2013-02-17 18:11:00,37.0,6.0,30.19,West,279,5.0,11.0,27,0.00,,,0.03,,2013-02-17 23:11:00,
2013-02-17 18:21:00,36.0,7.0,30.19,West,269,0.0,5.0,29,0.00,,,0.02,,2013-02-17 23:21:00,
2013-02-17 18:32:00,35.0,8.0,30.19,SSW,200,0.0,3.0,32,0.00,,,0.02,,2013-02-17 23:32:00,
2013-02-17 18:42:00,35.0,8.0,30.19,SSW,200,0.0,3.0,32,0.00,,,0.02,,2013-02-17 23:42:00,
2013-02-17 18:52:00,34.0,9.0,30.20,WSW,239,0.0,4.0,35,0.00,,,0.02,,2013-02-17 23:52:00,
2013-02-17 19:02:00,33.0,8.0,30.20,WSW,239,0.0,2.0,35,0.00,,,0.02,,2013-02-18 00:02:00,
2013-02-17 19:11:00,33.0,8.0,30.20,WSW,239,0.0,2.0,35,0.00,,,0.02,,2013-02-18 00:11:00,
2013-02-17 19:22:00,33.0,8.0,30.20,SSW,199,0.0,3.0,35,0.00,,,0.01,,2013-02-18 00:22:00,
2013-02-17 19:32:00,33.0,8.0,30.20,SSW,199,0.0,2.0,35,0.00,,,0.01,,2013-02-18 00:32:00,
2013-02-17 19:41:00,33.0,8.0,30.20,SSW,199,0.0,2.0,35,0.00,,,0.01,,2013-02-18 00:41:00,
2013-02-17 19:52:00,33.0,8.0,30.20,South,190,1.0,4.0,34,0.00,,,0.01,,2013-02-18 00:52:00,
2013-02-17 20:01:00,33.0,7.0,30.20,SSW,202,0.0,1.0,33,0.00,,,0.01,,2013-02-18 01:01:00,
2013-02-17 20:12:00,33.0,7.0,30.20,SSW,202,0.0,1.0,33,0.00,,,0.01,,2013-02-18 01:12:00,
2013-02-17 20:21:00,33.0,7.0,30.21,South,191,0.0,2.0,33,0.00,,,0.01,,2013-02-18 01:21:00,
2013-02-17 20:32:00,33.0,8.0,30.20,South,191,0.0,3.0,34,0.00,,,0.01,,2013-02-18 01:32:00,
2013-02-17 20:42:00,33.0,8.0,30.20,South,191,0.0,3.0,34,0.00,,,0.01,,2013-02-18 01:42:00,
2013-02-17 20:51:00,34.0,9.0,30.22,SSW,207,1.0,5.0,34,0.00,,,0.01,,2013-02-18 01:51:00,
2013-02-17 21:02:00,34.0,10.0,30.22,South,184,1.0,4.0,36,0.00,,,0.01,,2013-02-18 02:02:00,
2013-02-17 21:11:00,34.0,10.0,30.22,South,184,1.0,4.0,36,0.00,,,0.01,,2013-02-18 02:11:00,
2013-02-17 21:22:00,34.0,9.0,30.22,South,177,1.0,4.0,35,0.00,,,0.01,,2013-02-18 02:22:00,
2013-02-17 21:32:00,34.0,10.0,30.22,SW,225,1.0,6.0,36,0.00,,,0.01,,2013-02-18 02:32:00,
2013-02-17 21:42:00,34.0,10.0,30.22,SW,225,1.0,6.0,36,0.00,,,0.01,,2013-02-18 02:42:00,
2013-02-17 21:52:00,33.0,10.0,30.22,SW,223,1.0,6.0,37,0.00,,,0.01,,2013-02-18 02:52:00,
2013-02-17 22:02:00,34.0,11.0,30.23,SSW,202,2.0,5.0,37,0.00,,,0.01,,2013-02-18 03:02:00,
2013-02-17 22:11:00,34.0,11.0,30.23,SSW,202,2.0,5.0,37,0.00,,,0.01,,2013-02-18 03:11:00,
2013-02-17 22:21:00,34.0,9.0,30.23,SE,140,3.0,6.0,35,0.00,,,0.01,,2013-02-18 03:21:00,
2013-02-17 22:32:00,34.0,9.0,30.23,South,180,2.0,8.0,34,0.00,,,0.01,,2013-02-18 03:32:00,
2013-02-17 22:42:00,34.0,9.0,30.23,South,180,2.0,8.0,34,0.00,,,0.01,,2013-02-18 03:42:00,
2013-02-17 22:51:00,34.0,10.0,30.23,South,185,1.0,5.0,36,0.00,,,0.01,,2013-02-18 03:51:00,
2013-02-17 23:01:00,34.0,9.0,30.23,South,180,1.0,7.0,35,0.00,,,0.01,,2013-02-18 04:01:00,
2013-02-17 23:11:00,34.0,9.0,30.23,South,180,1.0,7.0,35,0.00,,,0.01,,2013-02-18 04:11:00,
2013-02-17 23:21:00,34.0,10.0,30.23,South,174,1.0,6.0,36,0.00,,,0.01,,2013-02-18 04:21:00,
2013-02-17 23:32:00,34.0,11.0,30.23,SSW,199,1.0,7.0,37,0.00,,,0.01,,2013-02-18 04:32:00,
2013-02-17 23:42:00,34.0,11.0,30.23,SSW,199,1.0,7.0,37,0.00,,,0.01,,2013-02-18 04:42:00,
2013-02-17 23:52:00,33.0,10.0,30.23,SW,230,1.0,3.0,37,0.00,,,0.01,,2013-02-18 04:52:00,